Time;durP1;ratioP1;P1;durP2;ratioP2;P2;SDS_P1;SDS_P2;PMS_P1;PMS_P2;Temp;Humidity;BMP_temperature;BMP_pressure;BME280_temperature;BME280_humidity;BME280_pressure;Samples;Min_cycle;Max_cycle;Signal;HPM_P1;HPM_P2
2021/01/21 04:12:57;;;;;;;5.32;2.83;;;-5.20;99.90;;;;;;4962260;28;20542;-72
2021/01/21 04:15:22;;;;;;;3.00;1.88;;;-5.20;99.90;;;;;;4972920;28;20038;-72
2021/01/21 04:17:48;;;;;;;4.40;2.35;;;-5.20;99.90;;;;;;4976541;28;20030;-72
2021/01/21 04:20:14;;;;;;;4.55;2.40;;;-5.20;99.90;;;;;;4976824;28;20109;-72
2021/01/21 04:22:40;;;;;;;5.47;2.28;;;-5.10;99.90;;;;;;4963114;28;20382;-71
2021/01/21 04:25:06;;;;;;;6.10;2.17;;;-5.10;99.90;;;;;;4976150;28;20483;-71
2021/01/21 04:27:32;;;;;;;3.95;2.20;;;-5.10;99.90;;;;;;4972471;28;20027;-71
2021/01/21 04:29:57;;;;;;;3.72;2.20;;;-5.10;99.90;;;;;;4956967;28;20035;-71
2021/01/21 04:32:23;;;;;;;2.22;1.80;;;-5.10;99.90;;;;;;4971003;28;20019;-71
2021/01/21 04:34:49;;;;;;;4.22;2.28;;;-5.10;99.90;;;;;;4976276;28;20034;-71
2021/01/21 04:37:14;;;;;;;6.38;1.65;;;-5.10;99.90;;;;;;4975285;28;20433;-71
2021/01/21 04:39:40;;;;;;;4.63;2.22;;;-5.10;99.90;;;;;;4949479;28;20023;-71
2021/01/21 04:42:06;;;;;;;5.88;2.42;;;-5.20;99.90;;;;;;4975931;28;20117;-71
2021/01/21 04:44:32;;;;;;;2.65;2.20;;;-5.20;99.90;;;;;;4976410;28;20029;-71
2021/01/21 04:46:59;;;;;;;3.22;2.03;;;-5.10;99.90;;;;;;4976196;28;20487;-72
2021/01/21 04:49:29;;;;;;;3.58;1.77;;;-5.10;99.90;;;;;;4975832;28;20026;-72
2021/01/21 04:52:01;;;;;;;5.45;2.03;;;-5.10;99.90;;;;;;4975792;28;20043;-72
2021/01/21 04:54:29;;;;;;;6.03;2.25;;;-5.00;99.90;;;;;;4974494;28;20495;-72
2021/01/21 04:57:02;;;;;;;3.80;2.45;;;-4.90;99.90;;;;;;4963977;28;20517;-72
2021/01/21 04:59:35;;;;;;;5.28;2.03;;;-4.90;99.90;;;;;;4975953;28;20070;-72
2021/01/21 05:02:06;;;;;;;2.70;1.75;;;-4.80;99.90;;;;;;4958289;28;20023;-72
2021/01/21 05:04:32;;;;;;;2.75;2.10;;;-4.80;99.90;;;;;;4966513;28;20491;-72
2021/01/21 05:06:59;;;;;;;2.85;1.98;;;-4.80;99.90;;;;;;4975493;28;20106;-72
2021/01/21 05:09:25;;;;;;;8.07;2.55;;;-4.70;99.90;;;;;;4976090;28;20019;-72
2021/01/21 05:11:51;;;;;;;6.88;1.98;;;-4.60;99.90;;;;;;4975449;28;20497;-72
2021/01/21 05:14:16;;;;;;;3.45;1.90;;;-4.50;99.90;;;;;;4968676;28;20046;-71
2021/01/21 05:16:45;;;;;;;3.78;2.08;;;-4.40;99.90;;;;;;4968660;28;20505;-71
2021/01/21 05:19:15;;;;;;;4.30;2.30;;;-4.30;99.90;;;;;;4975248;28;20081;-71
2021/01/21 05:21:41;;;;;;;3.45;1.98;;;-4.10;99.90;;;;;;4975493;28;20026;-71
2021/01/21 05:24:10;;;;;;;2.95;2.15;;;-3.90;99.90;;;;;;4961977;28;20019;-71
2021/01/21 05:26:42;;;;;;;5.10;1.95;;;-3.80;99.90;;;;;;4964857;28;20480;-72
2021/01/21 05:29:09;;;;;;;3.42;1.98;;;-3.70;99.90;;;;;;4955910;29;20027;-72
2021/01/21 05:31:36;;;;;;;5.38;2.13;;;-3.60;99.90;;;;;;4965409;28;20038;-72
2021/01/21 05:34:05;;;;;;;3.47;2.08;;;-3.60;99.90;;;;;;4975243;28;20035;-71
2021/01/21 05:36:36;;;;;;;3.85;2.22;;;-3.50;99.90;;;;;;4975442;28;20049;-72
2021/01/21 05:39:05;;;;;;;4.13;2.08;;;-3.50;99.90;;;;;;4974640;28;20034;-73
2021/01/21 05:41:33;;;;;;;3.05;1.80;;;-3.40;99.90;;;;;;4962566;28;20487;-73
2021/01/21 05:44:04;;;;;;;3.03;1.98;;;-3.20;99.90;;;;;;4975196;28;20035;-71
2021/01/21 05:46:31;;;;;;;3.55;2.03;;;-3.10;99.90;;;;;;4975222;28;20125;-73
2021/01/21 05:48:57;;;;;;;4.25;2.25;;;-3.10;99.90;;;;;;4973558;28;20030;-72
2021/01/21 05:51:24;;;;;;;3.55;1.90;;;-3.10;99.90;;;;;;4974554;28;20031;-74
2021/01/21 05:53:53;;;;;;;6.25;2.25;;;-3.10;99.90;;;;;;4973391;28;20449;-74
2021/01/21 05:56:19;;;;;;;4.88;1.90;;;-3.10;99.90;;;;;;4957372;28;20031;-73
2021/01/21 05:58:54;;;;;;;4.50;2.17;;;-3.10;99.90;;;;;;4953328;29;20035;-73
2021/01/21 06:01:23;;;;;;;4.35;2.25;;;-3.10;99.90;;;;;;4954319;29;20086;-73
2021/01/21 06:03:49;;;;;;;4.28;1.75;;;-3.00;99.90;;;;;;4954676;29;20545;-72
2021/01/21 06:06:15;;;;;;;4.15;2.00;;;-3.00;99.90;;;;;;4953058;29;20494;-72
2021/01/21 06:08:44;;;;;;;4.88;1.92;;;-3.00;99.90;;;;;;4954926;28;20033;-72
2021/01/21 06:11:11;;;;;;;8.20;2.30;;;-3.00;99.90;;;;;;4954376;29;20597;-71
2021/01/21 06:13:38;;;;;;;4.53;1.95;;;-2.90;99.90;;;;;;4954103;28;20043;-72
2021/01/21 06:16:08;;;;;;;4.43;2.03;;;-2.90;99.90;;;;;;4954586;29;20031;-74
2021/01/21 06:18:34;;;;;;;4.43;1.85;;;-2.90;99.90;;;;;;4954472;28;20043;-74
2021/01/21 06:21:01;;;;;;;5.13;2.10;;;-2.90;99.90;;;;;;4954759;29;20102;-74
2021/01/21 06:23:31;;;;;;;4.30;1.67;;;-2.90;99.90;;;;;;4955068;29;20034;-70
2021/01/21 06:25:58;;;;;;;6.10;1.85;;;-2.90;99.90;;;;;;4955159;29;20039;-72
2021/01/21 06:28:25;;;;;;;6.07;1.70;;;-2.90;99.90;;;;;;4954850;28;20115;-78
2021/01/21 06:30:52;;;;;;;3.60;2.03;;;-2.90;99.90;;;;;;4954704;28;20122;-76
2021/01/21 06:33:29;;;;;;;3.80;1.55;;;-2.80;99.90;;;;;;4959980;28;20031;-76
2021/01/21 06:36:05;;;;;;;2.45;1.20;;;-2.80;99.90;;;;;;4963562;28;20027;-76
2021/01/21 06:38:40;;;;;;;3.15;1.65;;;-2.80;99.90;;;;;;4960903;28;20016;-77
2021/01/21 06:41:10;;;;;;;4.13;1.70;;;-2.80;99.90;;;;;;4960330;28;20027;-77
2021/01/21 06:43:37;;;;;;;;;;;-2.80;99.90;;;;;;4955301;28;20435;-76
2021/01/21 06:46:04;;;;;;;3.58;1.50;;;-2.80;99.90;;;;;;4954513;28;19973;-77
2021/01/21 06:48:30;;;;;;;4.10;1.48;;;-2.90;99.90;;;;;;4954381;28;20403;-76
2021/01/21 06:50:56;;;;;;;6.50;1.60;;;-2.80;99.90;;;;;;4954385;29;20042;-73
2021/01/21 06:53:23;;;;;;;2.10;1.55;;;-2.80;99.90;;;;;;4954371;29;20026;-73
2021/01/21 06:55:50;;;;;;;6.88;1.75;;;-2.90;99.90;;;;;;4954841;29;20052;-77
2021/01/21 06:59:04;;;;;;;4.65;1.50;;;-2.80;99.90;;;;;;4954386;29;20020;-77
2021/01/21 07:01:32;;;;;;;2.60;1.48;;;-2.80;99.90;;;;;;4941405;29;20028;-70
2021/01/21 07:04:04;;;;;;;4.38;1.90;;;-2.70;99.90;;;;;;4960538;28;20026;-79
2021/01/21 07:06:52;;;;;;;3.30;1.70;;;-1.60;99.90;;;;;;4973496;28;20529;-78
2021/01/21 07:09:20;;;;;;;2.22;1.40;;;-2.00;99.90;;;;;;4961737;28;20046;-77
2021/01/21 07:11:46;;;;;;;2.40;1.60;;;-2.30;99.90;;;;;;4973450;28;20383;-78
2021/01/21 07:14:17;;;;;;;3.03;1.48;;;-2.50;99.90;;;;;;4974273;28;20636;-78
2021/01/21 07:16:49;;;;;;;3.83;1.65;;;-2.60;99.90;;;;;;4973435;28;20456;-75
2021/01/21 07:19:15;;;;;;;4.80;1.75;;;-1.70;99.90;;;;;;4973275;28;20053;-71
2021/01/21 07:21:51;;;;;;;2.03;1.30;;;-1.90;99.90;;;;;;4961750;28;20082;-71
2021/01/21 07:24:21;;;;;;;2.92;1.40;;;-2.20;99.90;;;;;;4958786;28;20018;-75
2021/01/21 07:26:50;;;;;;;1.30;1.07;;;-2.40;99.90;;;;;;4959977;28;20035;-73
2021/01/21 07:29:21;;;;;;;2.08;1.50;;;-2.50;99.90;;;;;;4953197;29;20261;-72
2021/01/21 07:31:59;;;;;;;5.40;1.83;;;-2.60;99.90;;;;;;4953241;29;20039;-73
2021/01/21 07:34:40;;;;;;;4.20;1.67;;;-2.70;99.90;;;;;;4954005;29;20139;-74
2021/01/21 07:37:22;;;;;;;;;;;-2.70;99.90;;;;;;4954032;28;20038;-74
2021/01/21 07:39:58;;;;;;;2.67;1.45;;;-2.70;99.90;;;;;;4949633;28;20325;-82
2021/01/21 07:42:44;;;;;;;2.22;1.20;;;-2.80;99.90;;;;;;4966566;28;20015;-78
2021/01/21 07:45:14;;;;;;;3.13;1.38;;;-2.80;99.90;;;;;;4946014;28;20081;-73
2021/01/21 07:47:48;;;;;;;1.83;1.47;;;-2.80;99.90;;;;;;4962740;28;20035;-73
2021/01/21 07:50:16;;;;;;;3.63;1.55;;;-2.80;99.90;;;;;;4951661;28;20019;-74
2021/01/21 07:52:43;;;;;;;2.45;1.60;;;-2.80;99.90;;;;;;4951176;29;20501;-71
2021/01/21 07:55:10;;;;;;;4.03;1.80;;;-2.80;99.90;;;;;;4952792;29;20463;-75
2021/01/21 07:57:37;;;;;;;4.10;1.60;;;-2.90;99.90;;;;;;4953096;28;20020;-73
2021/01/21 08:00:10;;;;;;;2.97;1.50;;;-2.90;99.90;;;;;;4953126;29;20530;-73
2021/01/21 08:02:43;;;;;;;3.05;1.60;;;-2.80;99.90;;;;;;4952347;29;20095;-72
2021/01/21 08:05:10;;;;;;;3.03;1.52;;;-2.80;99.90;;;;;;4953613;29;20431;-73
2021/01/21 08:07:52;;;;;;;3.17;1.83;;;-2.90;99.90;;;;;;4953766;29;20473;-72
2021/01/21 08:10:23;;;;;;;2.83;1.63;;;-2.90;99.90;;;;;;4953733;29;20031;-74
2021/01/21 08:13:18;;;;;;;1.55;1.45;;;-2.90;99.90;;;;;;4953622;28;20027;-72
2021/01/21 08:15:44;;;;;;;2.88;1.65;;;-2.90;99.90;;;;;;4941249;28;20051;-73
2021/01/21 08:18:15;;;;;;;3.45;1.85;;;-2.90;99.90;;;;;;4953421;29;20387;-74
2021/01/21 08:20:41;;;;;;;2.90;1.77;;;-2.90;99.90;;;;;;4953630;29;20023;-73
2021/01/21 08:23:10;;;;;;;5.25;2.05;;;-2.90;99.90;;;;;;4953770;29;20114;-75
2021/01/21 08:25:40;;;;;;;2.55;1.48;;;-2.90;99.90;;;;;;4953798;29;20124;-77
2021/01/21 08:28:05;;;;;;;2.97;1.33;;;-2.90;99.90;;;;;;4953625;29;20019;-77
2021/01/21 08:30:31;;;;;;;1.83;1.55;;;-3.00;99.90;;;;;;4953563;28;20114;-75
2021/01/21 08:33:17;;;;;;;2.47;1.80;;;-3.00;99.90;;;;;;4953154;29;20091;-75
2021/01/21 08:35:53;;;;;;;1.00;1.00;;;-2.90;99.90;;;;;;4953731;28;20479;-73
2021/01/21 08:38:24;;;;;;;2.78;1.77;;;-2.60;99.90;;;;;;4953796;29;20069;-75
2021/01/21 08:40:52;;;;;;;1.42;1.33;;;-2.70;99.90;;;;;;4953616;28;20023;-74
2021/01/21 08:43:19;;;;;;;2.17;1.65;;;-2.80;99.90;;;;;;4953613;28;20090;-75
2021/01/21 08:45:45;;;;;;;7.38;2.00;;;-2.90;99.90;;;;;;4953420;28;20091;-74
2021/01/21 08:48:22;;;;;;;3.15;1.30;;;-2.90;99.90;;;;;;4953345;28;20036;-75
2021/01/21 08:50:47;;;;;;;1.90;1.55;;;-2.90;99.90;;;;;;4953635;28;20026;-75
2021/01/21 08:53:21;;;;;;;2.92;1.50;;;-3.00;99.90;;;;;;4953543;28;20023;-74
2021/01/21 08:55:49;;;;;;;2.63;1.48;;;-3.10;99.90;;;;;;4953559;28;20035;-75
2021/01/21 08:58:16;;;;;;;4.00;1.75;;;-3.10;99.90;;;;;;4953162;28;20082;-75
2021/01/21 09:01:06;;;;;;;3.53;1.35;;;-3.10;99.90;;;;;;4953604;28;20031;-75
2021/01/21 09:03:48;;;;;;;5.63;1.73;;;-3.20;99.90;;;;;;4950937;28;20039;-75
2021/01/21 09:06:16;;;;;;;3.47;1.67;;;-3.10;99.90;;;;;;4956617;28;20047;-75
2021/01/21 09:08:48;;;;;;;6.22;1.58;;;-3.20;99.90;;;;;;4955397;29;20583;-74
2021/01/21 09:11:38;;;;;;;1.60;1.50;;;-3.20;99.90;;;;;;4956582;28;20467;-75
2021/01/21 09:14:05;;;;;;;6.87;2.27;;;-3.30;99.90;;;;;;4956478;29;20051;-75
2021/01/21 09:16:53;;;;;;;4.32;2.03;;;-3.20;99.90;;;;;;4956696;29;20483;-74
2021/01/21 09:19:28;;;;;;;2.20;1.58;;;-3.20;99.90;;;;;;4956792;29;20059;-75
2021/01/21 09:22:05;;;;;;;5.60;2.00;;;-3.20;99.90;;;;;;4956472;28;20027;-74
2021/01/21 09:24:32;;;;;;;2.05;1.50;;;-3.20;99.90;;;;;;4956476;28;20042;-75
2021/01/21 09:27:11;;;;;;;4.30;2.00;;;-3.30;99.90;;;;;;4956367;29;20050;-75
2021/01/21 09:29:57;;;;;;;3.85;2.10;;;-3.30;99.90;;;;;;4956406;29;20023;-75
2021/01/21 09:32:33;;;;;;;9.68;1.80;;;-3.30;99.90;;;;;;4956264;28;20027;-75
2021/01/21 09:35:05;;;;;;;3.03;1.52;;;-3.40;99.90;;;;;;4956561;28;20514;-75
2021/01/21 09:37:36;;;;;;;3.22;1.95;;;-3.40;99.90;;;;;;4956257;29;20035;-74
2021/01/21 09:40:05;;;;;;;3.65;1.73;;;-3.40;99.90;;;;;;4956445;28;20023;-74
2021/01/21 09:42:31;;;;;;;1.63;1.38;;;-3.40;99.90;;;;;;4956062;28;20488;-75
2021/01/21 09:44:57;;;;;;;2.40;1.48;;;-3.40;99.90;;;;;;4956233;28;20118;-75
2021/01/21 09:47:22;;;;;;;2.97;1.40;;;-3.40;99.90;;;;;;4955723;29;20031;-75
2021/01/21 09:49:48;;;;;;;4.00;1.60;;;-3.40;99.90;;;;;;4956105;29;20027;-74
2021/01/21 09:52:14;;;;;;;5.57;2.22;;;-3.50;99.90;;;;;;4955966;29;20525;-74
2021/01/21 09:54:40;;;;;;;3.80;1.58;;;-3.50;99.90;;;;;;4956180;29;20063;-74
2021/01/21 09:57:06;;;;;;;1.63;1.40;;;-3.50;99.90;;;;;;4955127;29;20086;-73
2021/01/21 09:59:32;;;;;;;10.10;2.15;;;-3.50;99.90;;;;;;4956028;29;20118;-75
2021/01/21 10:01:58;;;;;;;6.95;1.90;;;-3.30;99.90;;;;;;4954741;29;20058;-79
2021/01/21 10:04:24;;;;;;;1.88;1.50;;;-3.20;99.90;;;;;;4956056;29;20026;-80
2021/01/21 10:06:51;;;;;;;2.40;1.55;;;-3.30;99.90;;;;;;4955720;28;20131;-76
2021/01/21 10:09:17;;;;;;;7.00;2.22;;;-3.40;99.90;;;;;;4955194;28;20106;-76
2021/01/21 10:11:43;;;;;;;2.58;1.70;;;-3.50;99.90;;;;;;4955586;29;20122;-73
2021/01/21 10:14:09;;;;;;;8.35;1.70;;;-3.50;99.90;;;;;;4954239;28;20051;-82
2021/01/21 10:16:35;;;;;;;2.17;1.67;;;-3.40;99.90;;;;;;4955541;29;20035;-76
2021/01/21 10:19:01;;;;;;;4.55;1.77;;;-3.40;99.90;;;;;;4955516;29;20034;-75
2021/01/21 10:21:27;;;;;;;3.60;1.85;;;-3.50;99.90;;;;;;4955217;29;20035;-75
2021/01/21 10:23:53;;;;;;;9.05;2.25;;;-3.50;99.90;;;;;;4967134;29;20027;-80
2021/01/21 10:26:20;;;;;;;2.25;1.23;;;-3.30;99.90;;;;;;4955599;28;20039;-74
2021/01/21 10:28:46;;;;;;;2.35;1.75;;;-3.30;99.90;;;;;;4955123;29;20024;-74
2021/01/21 10:31:12;;;;;;;7.45;2.00;;;-3.40;99.90;;;;;;4954536;29;20050;-74
2021/01/21 10:33:38;;;;;;;6.43;2.22;;;-3.50;99.90;;;;;;4954559;29;20440;-73
2021/01/21 10:36:05;;;;;;;2.30;1.65;;;-3.60;99.90;;;;;;4954776;29;20122;-73
2021/01/21 10:38:31;;;;;;;6.80;2.30;;;-3.60;99.90;;;;;;4954350;29;20023;-72
2021/01/21 10:40:57;;;;;;;4.20;1.77;;;-3.60;99.90;;;;;;4954674;29;21280;-72
2021/01/21 10:43:23;;;;;;;5.75;2.22;;;-3.60;99.90;;;;;;4945660;29;20026;-73
2021/01/21 10:45:49;;;;;;;1.42;1.20;;;-3.60;99.90;;;;;;4945016;29;20028;-73
2021/01/21 10:48:15;;;;;;;2.88;1.50;;;-3.60;99.90;;;;;;4944055;29;20082;-73
2021/01/21 10:50:42;;;;;;;3.38;1.70;;;-3.60;99.90;;;;;;4950883;29;20042;-74
2021/01/21 10:53:08;;;;;;;6.18;1.77;;;-3.60;99.90;;;;;;4954196;29;20023;-74
2021/01/21 10:55:34;;;;;;;4.60;1.83;;;-3.60;99.90;;;;;;4954768;29;20032;-74
2021/01/21 10:57:59;;;;;;;3.25;1.67;;;-3.60;99.90;;;;;;4954704;28;20530;-74
2021/01/21 11:00:25;;;;;;;5.30;1.70;;;-3.60;99.90;;;;;;4954761;29;20055;-74
2021/01/21 11:02:51;;;;;;;6.63;2.17;;;-3.60;99.90;;;;;;4954826;29;20024;-74
2021/01/21 11:05:17;;;;;;;3.33;2.00;;;-3.60;99.90;;;;;;4954434;29;20039;-73
2021/01/21 11:07:42;;;;;;;3.72;2.03;;;-3.60;99.90;;;;;;4954718;29;20028;-73
2021/01/21 11:10:09;;;;;;;2.78;1.33;;;-3.60;99.90;;;;;;4954725;29;20023;-74
2021/01/21 11:12:35;;;;;;;3.53;1.90;;;-3.60;99.90;;;;;;4954267;29;20030;-73
2021/01/21 11:15:02;;;;;;;3.97;2.20;;;-3.60;99.90;;;;;;4954157;29;20082;-72
2021/01/21 11:17:28;;;;;;;3.00;1.90;;;-3.70;99.90;;;;;;4954344;28;20043;-73
2021/01/21 11:19:55;;;;;;;1.73;1.60;;;-3.70;99.90;;;;;;4954122;29;20472;-74
2021/01/21 11:22:22;;;;;;;6.47;1.95;;;-3.60;99.90;;;;;;4953887;29;20503;-78
2021/01/21 11:24:48;;;;;;;4.72;2.10;;;-3.60;99.90;;;;;;4954021;28;20078;-77
2021/01/21 11:27:14;;;;;;;6.20;1.90;;;-3.60;99.90;;;;;;4953782;29;20518;-75
2021/01/21 11:29:39;;;;;;;12.43;3.20;;;-3.60;99.90;;;;;;4953869;29;20026;-79
2021/01/21 11:32:05;;;;;;;4.95;2.47;;;-3.60;99.90;;;;;;4954069;29;20110;-80
2021/01/21 11:34:31;;;;;;;2.17;1.80;;;-3.60;99.90;;;;;;4953870;29;20090;-80
2021/01/21 11:36:56;;;;;;;8.63;2.33;;;-3.70;99.90;;;;;;4953700;29;20502;-80
2021/01/21 11:39:22;;;;;;;4.22;2.10;;;-3.70;99.90;;;;;;4953632;29;20027;-80
2021/01/21 11:41:48;;;;;;;3.88;1.63;;;-3.70;99.90;;;;;;4954213;29;20031;-79
2021/01/21 11:44:14;;;;;;;2.25;1.88;;;-3.70;99.90;;;;;;4954026;28;20410;-79
2021/01/21 11:46:39;;;;;;;5.65;2.40;;;-3.70;99.90;;;;;;4954110;29;20031;-77
2021/01/21 11:49:05;;;;;;;3.03;1.83;;;-3.70;99.90;;;;;;4953648;29;20530;-76
2021/01/21 11:51:31;;;;;;;2.83;1.65;;;-3.80;99.90;;;;;;4950686;29;20023;-75
2021/01/21 11:53:57;;;;;;;6.28;2.00;;;-3.70;99.90;;;;;;4953017;29;20023;-75
2021/01/21 11:56:22;;;;;;;3.80;1.95;;;-3.80;99.90;;;;;;4950229;29;20037;-75
2021/01/21 11:58:48;;;;;;;2.40;1.92;;;-3.70;99.90;;;;;;4953226;29;20055;-75
2021/01/21 12:01:14;;;;;;;5.93;2.28;;;-3.70;99.90;;;;;;4953316;29;20086;-77
2021/01/21 12:03:39;;;;;;;5.38;2.13;;;-3.70;99.90;;;;;;4953472;28;20040;-77
2021/01/21 12:06:05;;;;;;;2.80;1.75;;;-3.70;99.90;;;;;;4953455;28;20035;-77
2021/01/21 12:08:31;;;;;;;7.10;2.10;;;-3.80;99.90;;;;;;4952377;28;20097;-76
2021/01/21 12:10:57;;;;;;;3.53;1.63;;;-3.80;99.90;;;;;;4951320;29;20074;-76
2021/01/21 12:13:22;;;;;;;3.92;1.90;;;-3.80;99.90;;;;;;4953177;28;20566;-76
2021/01/21 12:15:48;;;;;;;5.15;1.95;;;-3.80;99.90;;;;;;4953448;29;20038;-77
2021/01/21 12:18:14;;;;;;;5.13;1.80;;;-3.80;99.90;;;;;;4953042;28;20123;-76
2021/01/21 12:20:40;;;;;;;3.78;2.00;;;-3.80;99.90;;;;;;4946908;29;20158;-77
2021/01/21 12:23:06;;;;;;;4.22;2.00;;;-3.80;99.90;;;;;;4934263;29;20114;-76
2021/01/21 12:25:31;;;;;;;1.90;1.67;;;-3.80;99.90;;;;;;4934078;29;20035;-77
2021/01/21 12:27:57;;;;;;;3.88;1.92;;;-3.80;99.90;;;;;;4934401;29;20027;-76
2021/01/21 12:30:24;;;;;;;3.38;2.13;;;-3.80;99.90;;;;;;4951622;29;20392;-79
2021/01/21 12:32:50;;;;;;;3.03;1.88;;;-3.90;99.90;;;;;;4953085;29;20030;-77
2021/01/21 12:35:16;;;;;;;1.90;1.20;;;-3.70;99.90;;;;;;4953468;29;20031;-77
2021/01/21 12:37:42;;;;;;;2.28;1.92;;;-3.70;99.90;;;;;;4954042;28;20027;-77
2021/01/21 12:40:08;;;;;;;5.20;2.15;;;-3.80;99.90;;;;;;4956502;28;20046;-77
2021/01/21 12:42:34;;;;;;;6.95;1.88;;;-3.80;99.90;;;;;;4956823;28;20035;-74
2021/01/21 12:45:00;;;;;;;5.60;2.58;;;-3.80;99.90;;;;;;4957261;28;20029;-78
2021/01/21 12:47:26;;;;;;;6.15;2.33;;;-3.90;99.90;;;;;;4957173;28;20122;-77
2021/01/21 12:49:51;;;;;;;2.97;2.40;;;-3.90;99.90;;;;;;4957383;28;20102;-77
2021/01/21 12:52:18;;;;;;;3.70;1.85;;;-3.90;99.90;;;;;;4956999;28;20024;-77
2021/01/21 12:54:47;;;;;;;5.45;2.53;;;-3.80;99.90;;;;;;4957175;28;20078;-77
2021/01/21 12:57:17;;;;;;;3.30;1.65;;;-3.80;99.90;;;;;;4957024;28;20023;-77
2021/01/21 12:59:44;;;;;;;7.55;2.00;;;-3.80;99.90;;;;;;4956954;28;20102;-76
2021/01/21 13:02:10;;;;;;;4.90;2.47;;;-3.90;99.90;;;;;;4958026;28;20043;-79
2021/01/21 13:04:36;;;;;;;4.57;2.33;;;-3.80;99.90;;;;;;4956530;28;20023;-75
2021/01/21 13:07:04;;;;;;;4.93;2.22;;;-3.80;99.90;;;;;;4956891;28;20039;-74
2021/01/21 13:09:30;;;;;;;3.83;2.53;;;-3.90;99.90;;;;;;4956519;28;20031;-72
2021/01/21 13:11:56;;;;;;;5.95;2.72;;;-3.90;99.90;;;;;;4956475;28;20023;-74
2021/01/21 13:14:22;;;;;;;9.18;1.92;;;-3.90;99.90;;;;;;4955862;29;20636;-75
2021/01/21 13:16:47;;;;;;;2.47;1.90;;;-3.90;99.90;;;;;;4956556;29;20023;-74
2021/01/21 13:19:13;;;;;;;4.10;2.58;;;-3.90;99.90;;;;;;4956856;29;20037;-74
2021/01/21 13:21:41;;;;;;;5.53;2.28;;;-3.90;99.90;;;;;;4954639;28;20406;-74
2021/01/21 13:24:07;;;;;;;2.72;2.17;;;-4.00;99.90;;;;;;4954175;28;20060;-74
2021/01/21 13:26:33;;;;;;;29.42;2.50;;;-4.00;99.90;;;;;;4955623;28;20058;-74
2021/01/21 13:28:59;;;;;;;9.35;2.60;;;-4.00;99.90;;;;;;4955803;28;20507;-73
2021/01/21 13:31:24;;;;;;;4.28;2.15;;;-4.00;99.90;;;;;;4955746;29;20415;-74
2021/01/21 13:33:50;;;;;;;7.78;2.53;;;-4.00;99.90;;;;;;4956064;29;20023;-74
2021/01/21 13:36:16;;;;;;;3.65;2.28;;;-4.00;99.90;;;;;;4956255;29;20486;-78
2021/01/21 13:38:42;;;;;;;9.13;2.25;;;-4.00;99.90;;;;;;4955724;29;20027;-75
2021/01/21 13:41:08;;;;;;;3.03;1.98;;;-4.00;99.90;;;;;;4951089;29;20051;-75
2021/01/21 13:43:34;;;;;;;3.78;1.95;;;-4.00;99.90;;;;;;4955490;29;20019;-74
2021/01/21 13:46:01;;;;;;;9.00;2.45;;;-4.00;99.90;;;;;;4956232;28;20039;-76
2021/01/21 13:48:26;;;;;;;3.90;2.35;;;-4.00;99.90;;;;;;4955421;28;20467;-76
2021/01/21 13:50:52;;;;;;;6.88;2.20;;;-4.00;99.90;;;;;;4955917;29;20039;-74
2021/01/21 13:53:18;;;;;;;9.35;3.35;;;-4.00;99.90;;;;;;4955634;28;20436;-75
2021/01/21 13:55:44;;;;;;;2.80;1.73;;;-4.00;99.90;;;;;;4955532;29;20035;-75
2021/01/21 13:58:09;;;;;;;3.50;2.13;;;-4.10;99.90;;;;;;4951565;29;20087;-74
2021/01/21 14:00:35;;;;;;;5.90;2.53;;;-4.10;99.90;;;;;;4950263;28;20035;-74
2021/01/21 14:03:02;;;;;;;3.20;2.17;;;-4.10;99.90;;;;;;4950954;29;20057;-74
2021/01/21 14:05:28;;;;;;;4.45;2.20;;;-4.10;99.90;;;;;;4955367;28;20031;-74
2021/01/21 14:07:54;;;;;;;5.47;2.55;;;-4.10;99.90;;;;;;4955512;28;20074;-74
2021/01/21 14:10:20;;;;;;;5.97;2.38;;;-4.10;99.90;;;;;;4955693;28;20051;-74
2021/01/21 14:12:46;;;;;;;6.28;2.50;;;-4.10;99.90;;;;;;4955183;28;20065;-74
2021/01/21 14:15:12;;;;;;;3.45;2.40;;;-4.10;99.90;;;;;;4955049;28;20159;-74
2021/01/21 14:17:38;;;;;;;5.35;2.03;;;-4.10;99.90;;;;;;4954373;28;20027;-74
2021/01/21 14:20:05;;;;;;;6.45;2.58;;;-4.10;99.90;;;;;;4954767;29;20035;-74
2021/01/21 14:22:30;;;;;;;4.15;2.05;;;-4.20;99.90;;;;;;4954971;28;20035;-74
2021/01/21 14:24:56;;;;;;;5.53;2.50;;;-4.20;99.90;;;;;;4954416;28;20027;-74
2021/01/21 14:27:22;;;;;;;3.85;2.28;;;-4.20;99.90;;;;;;4954525;29;20475;-74
2021/01/21 14:29:48;;;;;;;4.57;2.40;;;-4.10;99.90;;;;;;4954350;29;20034;-74
2021/01/21 14:32:13;;;;;;;3.00;1.65;;;-4.20;99.90;;;;;;4954649;29;20498;-74
2021/01/21 14:34:39;;;;;;;2.85;2.15;;;-4.20;99.90;;;;;;4954298;29;20030;-73
2021/01/21 14:37:05;;;;;;;4.38;2.28;;;-4.20;99.90;;;;;;4954567;28;20475;-74
2021/01/21 14:39:31;;;;;;;6.60;2.20;;;-4.20;99.90;;;;;;4952844;29;20023;-74
2021/01/21 14:41:56;;;;;;;4.05;2.30;;;-4.20;99.90;;;;;;4954497;29;20025;-74
2021/01/21 14:44:22;;;;;;;6.22;2.13;;;-4.30;99.90;;;;;;4954332;29;20102;-74
2021/01/21 14:46:48;;;;;;;7.32;2.10;;;-4.30;99.90;;;;;;4953379;29;20035;-74
2021/01/21 14:49:14;;;;;;;6.78;2.30;;;-4.20;99.90;;;;;;4954067;29;20495;-74
2021/01/21 14:51:40;;;;;;;4.28;2.13;;;-4.30;99.90;;;;;;4954090;29;20035;-74
2021/01/21 14:54:06;;;;;;;6.95;2.47;;;-4.30;99.90;;;;;;4954201;29;20024;-74
2021/01/21 14:56:32;;;;;;;4.03;1.95;;;-4.30;99.90;;;;;;4953709;28;20463;-74
2021/01/21 14:58:58;;;;;;;4.85;2.35;;;-4.30;99.90;;;;;;4953930;28;20043;-74
2021/01/21 15:01:24;;;;;;;20.17;2.90;;;-4.30;99.90;;;;;;4954503;29;20117;-74
2021/01/21 15:03:49;;;;;;;3.22;2.03;;;-4.30;99.90;;;;;;4954112;29;20364;-73
2021/01/21 15:06:15;;;;;;;4.38;2.10;;;-4.30;99.90;;;;;;4954570;29;20043;-73
2021/01/21 15:08:41;;;;;;;4.53;2.53;;;-4.30;99.90;;;;;;4954373;29;20102;-73
2021/01/21 15:11:07;;;;;;;4.65;2.03;;;-4.30;99.90;;;;;;4954531;29;20476;-74
2021/01/21 15:13:33;;;;;;;5.90;2.42;;;-4.30;99.90;;;;;;4953750;29;20054;-72
2021/01/21 15:15:59;;;;;;;4.47;2.00;;;-4.20;99.90;;;;;;4954253;29;20430;-73
2021/01/21 15:18:25;;;;;;;3.50;2.28;;;-4.20;99.90;;;;;;4953838;29;20408;-75
2021/01/21 15:20:59;;;;;;;2.95;2.05;;;-4.30;99.90;;;;;;4953565;29;20536;-73
2021/01/21 15:23:25;;;;;;;3.63;1.75;;;-4.30;99.90;;;;;;4953247;29;20023;-73
2021/01/21 15:25:50;;;;;;;4.10;1.90;;;-4.30;99.90;;;;;;4953268;29;20091;-73
2021/01/21 15:28:17;;;;;;;6.18;2.30;;;-4.30;99.90;;;;;;4953409;29;20061;-73
2021/01/21 15:30:45;;;;;;;3.95;1.75;;;-4.30;99.90;;;;;;4953580;29;20338;-73
2021/01/21 15:33:10;;;;;;;5.38;2.08;;;-4.30;99.90;;;;;;4953558;29;20166;-74
2021/01/21 15:35:36;;;;;;;1.95;1.45;;;-4.30;99.90;;;;;;4953842;29;20530;-74
2021/01/21 15:38:02;;;;;;;3.03;1.70;;;-4.30;99.90;;;;;;4953724;29;20487;-74
2021/01/21 15:40:27;;;;;;;9.05;2.53;;;-4.20;99.90;;;;;;4953731;29;20027;-74
2021/01/21 15:42:53;;;;;;;3.97;1.98;;;-4.20;99.90;;;;;;4954102;29;20110;-75
2021/01/21 15:45:19;;;;;;;5.07;2.45;;;-4.30;99.90;;;;;;4958223;29;20051;-75
2021/01/21 15:47:44;;;;;;;3.08;1.80;;;-4.30;99.90;;;;;;4959421;28;20503;-74
2021/01/21 15:50:11;;;;;;;5.85;2.00;;;-4.30;99.90;;;;;;4966206;29;20121;-74
2021/01/21 15:52:36;;;;;;;4.38;2.20;;;-4.40;99.90;;;;;;4962715;29;20028;-74
2021/01/21 15:55:03;;;;;;;2.97;1.90;;;-4.30;99.90;;;;;;4957988;29;20629;-75
2021/01/21 15:57:28;;;;;;;3.13;2.03;;;-4.30;99.90;;;;;;4953829;29;20121;-75
2021/01/21 15:59:54;;;;;;;2.03;1.67;;;-4.40;99.90;;;;;;4953892;29;20113;-75
2021/01/21 16:02:20;;;;;;;3.97;2.50;;;-4.40;99.90;;;;;;4953938;29;20031;-75
2021/01/21 16:04:46;;;;;;;6.28;2.33;;;-4.40;99.90;;;;;;4953639;29;20071;-74
2021/01/21 16:07:11;;;;;;;3.67;2.00;;;-4.40;99.90;;;;;;4953640;29;20043;-74
2021/01/21 16:09:37;;;;;;;4.28;2.22;;;-4.40;99.90;;;;;;4952068;28;20031;-74
2021/01/21 16:12:03;;;;;;;4.63;2.20;;;-4.40;99.90;;;;;;4950525;28;20051;-81
2021/01/21 16:14:29;;;;;;;2.28;1.48;;;-4.40;99.90;;;;;;4945819;29;20044;-76
2021/01/21 16:16:54;;;;;;;4.55;1.90;;;-4.40;99.90;;;;;;4957839;29;20038;-80
2021/01/21 16:19:20;;;;;;;2.92;1.90;;;-4.50;99.90;;;;;;4957313;29;20042;-77
2021/01/21 16:21:46;;;;;;;5.15;2.08;;;-4.50;99.90;;;;;;4957373;29;20054;-78
2021/01/21 16:24:13;;;;;;;2.55;1.50;;;-4.50;99.90;;;;;;4957153;29;20081;-80
2021/01/21 16:26:38;;;;;;;1.83;1.70;;;-4.50;99.90;;;;;;4956818;29;20038;-77
2021/01/21 16:29:04;;;;;;;6.00;1.90;;;-4.50;99.90;;;;;;4957664;29;20026;-77
2021/01/21 16:31:30;;;;;;;5.20;2.20;;;-4.50;99.90;;;;;;4957822;29;20028;-77
2021/01/21 16:33:56;;;;;;;1.65;1.38;;;-4.50;99.90;;;;;;4957859;29;20373;-77
2021/01/21 16:36:22;;;;;;;2.13;1.80;;;-4.60;99.90;;;;;;4957587;29;20511;-77
2021/01/21 16:38:48;;;;;;;6.28;2.70;;;-4.50;99.90;;;;;;4957625;29;20034;-77
2021/01/21 16:41:13;;;;;;;7.18;2.33;;;-4.50;99.90;;;;;;4957440;29;20435;-77
2021/01/21 16:43:39;;;;;;;10.05;2.38;;;-4.60;99.90;;;;;;4955263;29;20019;-77
2021/01/21 16:46:05;;;;;;;8.63;2.05;;;-4.60;99.90;;;;;;4938061;29;20480;-77
2021/01/21 16:48:31;;;;;;;5.30;2.30;;;-4.50;99.90;;;;;;4938018;29;20031;-77
2021/01/21 16:50:56;;;;;;;2.40;2.03;;;-4.50;99.90;;;;;;4942636;29;20027;-78
2021/01/21 16:53:22;;;;;;;7.82;2.33;;;-4.50;99.90;;;;;;4952254;28;20031;-76
2021/01/21 16:55:50;;;;;;;5.30;2.13;;;-4.60;99.90;;;;;;4956735;29;20054;-81
2021/01/21 16:58:17;;;;;;;6.72;2.15;;;-4.60;99.90;;;;;;4957229;29;20041;-76
2021/01/21 17:00:43;;;;;;;3.22;1.73;;;-4.50;99.90;;;;;;4956831;29;20118;-78
2021/01/21 17:03:09;;;;;;;3.08;1.58;;;-4.50;99.90;;;;;;4955472;28;20106;-73